Indian Creek, Florida
Current Conditions -  °F | °C
As of 1:53 AM on Saturday 25 Oct 2014 (Local Time) from KOPF Reporting Station
Clear Clear  
Wind Chill: 22°   Ceiling: Unl
Heat Index: 22°   Visibility: 10mi
Dew Point: 18°   Wind: 10mph
Humidity: 81%   Direction: 340°NNW
Pressure: 29.87"   Gusts: NA
Location:  25.882°N, 80.1292°W
Report Text: KOPF 250553Z AUTO 34009KT 10SM CLR 22/18 A2987 RMK AO2 SLP117 60000 T02170183 10250 20217 51002
Loading
Personal Weather Stations






























Interactive Weather Map
Tropical Storm Tracking
New forecast layout! Learn more

10-Day Weather Forecast

Advertisements
Track Severe Weather on mobile